createdAt,value
2022-12-26T13:39:48.501Z,69.50
2022-12-26T13:40:25.840Z,70.00
2022-12-26T13:41:23.107Z,70.30
2022-12-26T13:42:20.789Z,70.40
2022-12-26T13:43:16.336Z,70.70
2022-12-26T13:44:05.426Z,70.70
2022-12-26T13:44:40.516Z,70.70
2022-12-26T13:45:52.510Z,70.80
2022-12-26T13:46:57.914Z,70.90
2022-12-26T13:47:35.964Z,71.00
2022-12-26T13:48:44.662Z,70.90
2022-12-26T13:49:36.972Z,70.70
2022-12-26T13:50:48.525Z,70.90
2022-12-26T13:51:53.918Z,71.20
2022-12-26T13:52:34.911Z,71.50
2022-12-26T13:53:31.537Z,71.70
2022-12-26T13:54:13.217Z,71.70
2022-12-26T13:55:20.798Z,71.70
2022-12-26T13:55:56.784Z,71.60
2022-12-26T13:57:06.139Z,71.60
2022-12-26T13:57:45.615Z,71.50
2022-12-26T13:58:46.281Z,71.50
2022-12-26T13:59:28.089Z,71.40
2022-12-26T14:00:14.574Z,71.60
2022-12-26T14:00:51.921Z,71.60
2022-12-26T14:01:36.899Z,71.80
2022-12-26T14:03:15.456Z,71.80
2022-12-26T14:03:52.312Z,72.00
2022-12-26T14:04:42.246Z,72.20
2022-12-26T14:05:25.846Z,72.20
2022-12-26T14:06:30.835Z,72.20
2022-12-26T14:07:25.809Z,72.20
2022-12-26T14:08:06.418Z,72.20
2022-12-26T14:08:54.732Z,72.20
2022-12-26T14:09:59.404Z,72.10
2022-12-26T14:10:41.300Z,72.20
2022-12-26T14:11:37.399Z,72.10
2022-12-26T14:12:30.939Z,71.90
2022-12-26T14:13:19.113Z,71.90
2022-12-26T14:14:09.153Z,71.80
2022-12-26T14:14:57.738Z,71.80
2022-12-26T14:15:49.621Z,71.90
2022-12-26T14:16:36.400Z,71.90
2022-12-26T14:17:30.748Z,71.90
2022-12-26T14:18:17.161Z,71.90
2022-12-26T14:18:55.079Z,72.00
2022-12-26T14:19:43.996Z,72.10
2022-12-26T14:20:34.184Z,72.10
2022-12-26T14:21:51.203Z,72.10
2022-12-26T14:22:36.764Z,72.10
2022-12-26T14:23:39.305Z,72.10
2022-12-26T14:24:25.082Z,72.10
2022-12-26T14:25:11.134Z,72.10
2022-12-26T14:25:53.387Z,72.10
2022-12-26T14:26:40.495Z,71.90
2022-12-26T14:27:28.633Z,72.10
2022-12-26T14:28:14.194Z,72.10
2022-12-26T14:28:57.565Z,72.20
2022-12-26T14:29:47.563Z,72.10
2022-12-26T14:30:27.000Z,72.10
2022-12-26T14:31:16.394Z,72.10
2022-12-26T14:32:13.793Z,72.00
2022-12-26T14:33:19.118Z,72.00
2022-12-26T14:34:15.860Z,72.10
2022-12-26T14:35:02.144Z,72.10
2022-12-26T14:35:46.961Z,72.80
2022-12-26T14:36:39.350Z,72.30
2022-12-26T14:37:25.128Z,72.40
2022-12-26T14:38:11.762Z,72.40
2022-12-26T14:38:51.479Z,72.20
2022-12-26T14:39:35.842Z,72.00
2022-12-26T14:40:26.217Z,71.80
2022-12-26T14:41:05.332Z,71.80
2022-12-26T14:42:35.184Z,71.80
2022-12-26T14:43:40.676Z,71.80
2022-12-26T14:44:39.602Z,71.90
2022-12-26T14:45:30.367Z,72.00
2022-12-26T14:46:07.613Z,72.20
2022-12-26T14:47:03.704Z,72.40
2022-12-26T14:47:41.348Z,72.50
2022-12-26T14:48:50.003Z,72.60
2022-12-26T14:49:35.004Z,72.80
2022-12-26T14:50:41.667Z,72.90
2022-12-26T14:51:47.428Z,73.00
2022-12-26T14:53:00.610Z,73.10
2022-12-26T14:53:37.187Z,73.10
2022-12-26T14:54:37.901Z,73.20
2022-12-26T14:55:43.319Z,73.00
2022-12-26T14:56:36.675Z,72.90
2022-12-26T14:57:44.407Z,73.00
2022-12-26T14:58:32.549Z,73.00
2022-12-26T14:59:30.730Z,73.10
2022-12-26T15:00:32.751Z,73.20
2022-12-26T15:01:47.263Z,73.10
2022-12-26T15:02:35.167Z,73.00
2022-12-26T15:03:44.164Z,72.80
2022-12-26T15:04:45.566Z,72.50
2022-12-26T15:05:25.294Z,72.50
2022-12-26T15:06:17.319Z,72.50
2022-12-26T15:07:41.535Z,72.70
2022-12-26T15:08:37.023Z,72.90
2022-12-26T15:09:55.729Z,73.00
2022-12-26T15:11:00.321Z,73.00
2022-12-26T15:11:58.545Z,73.00
2022-12-26T15:13:07.482Z,72.90
2022-12-26T15:14:19.805Z,72.80
2022-12-26T15:15:23.742Z,72.70
2022-12-26T15:16:15.628Z,72.70
2022-12-26T15:17:03.894Z,72.70
2022-12-26T15:17:48.516Z,72.50
2022-12-26T15:18:49.369Z,72.60
2022-12-26T15:20:16.052Z,72.80
2022-12-26T15:21:28.912Z,72.80
2022-12-26T15:22:41.740Z,72.80
2022-12-26T15:24:01.634Z,72.90
2022-12-26T15:25:19.581Z,72.80
2022-12-26T15:26:47.880Z,72.80
2022-12-26T15:27:40.144Z,72.70
2022-12-26T15:28:38.429Z,72.70
2022-12-26T15:30:01.951Z,72.60
2022-12-26T15:31:15.398Z,72.50
2022-12-26T15:31:58.336Z,72.40
2022-12-26T15:32:41.300Z,72.40
2022-12-26T15:33:22.988Z,72.30
2022-12-26T15:34:00.973Z,72.30
2022-12-26T15:34:55.038Z,72.40
2022-12-26T15:35:35.666Z,72.40
2022-12-26T15:36:22.592Z,72.60
2022-12-26T15:37:02.714Z,72.70
2022-12-26T15:38:18.976Z,72.90
2022-12-26T15:38:58.188Z,73.00
2022-12-26T15:39:40.277Z,73.20
2022-12-26T15:40:20.728Z,73.10
2022-12-26T15:41:04.592Z,73.00
2022-12-26T15:41:45.418Z,72.90
2022-12-26T15:42:26.261Z,72.80
2022-12-26T15:43:24.196Z,72.80
2022-12-26T15:44:16.552Z,72.80
2022-12-26T15:45:02.525Z,72.90
2022-12-26T15:45:49.624Z,72.90
2022-12-26T15:46:27.918Z,72.90
2022-12-26T15:47:17.963Z,72.90
2022-12-26T15:48:03.581Z,72.80
2022-12-26T15:48:51.187Z,72.60
2022-12-26T15:49:49.415Z,72.40
2022-12-26T15:50:31.973Z,71.80
2022-12-26T15:51:14.096Z,71.50
2022-12-26T15:51:59.434Z,71.40
2022-12-26T15:52:46.856Z,71.40
2022-12-26T15:53:35.016Z,71.40
2022-12-26T15:54:25.074Z,71.40
2022-12-26T15:55:24.721Z,71.70
2022-12-26T15:56:23.366Z,71.80
2022-12-26T15:57:12.240Z,71.90
2022-12-26T15:57:56.140Z,72.00
2022-12-26T15:58:52.049Z,72.30
2022-12-26T16:00:04.574Z,72.50
2022-12-26T16:00:52.654Z,72.70
2022-12-26T16:01:41.230Z,72.50
2022-12-26T16:02:33.207Z,72.30
2022-12-26T16:03:20.734Z,72.40
2022-12-26T16:03:57.178Z,72.30
2022-12-26T16:04:39.788Z,72.30
2022-12-26T16:05:38.302Z,72.50
2022-12-26T16:06:33.680Z,72.60
2022-12-26T16:07:16.349Z,72.70
2022-12-26T16:07:56.544Z,72.70
2022-12-26T16:08:58.561Z,72.90
2022-12-26T16:09:44.517Z,73.10
2022-12-26T16:10:31.551Z,73.40
2022-12-26T16:11:20.556Z,73.60
2022-12-26T16:12:00.947Z,73.80
2022-12-26T16:12:35.953Z,73.70
2022-12-26T16:13:23.154Z,73.80
2022-12-26T16:14:00.145Z,73.80
2022-12-26T16:14:40.422Z,73.90
2022-12-26T16:15:20.880Z,74.00
2022-12-26T16:16:01.278Z,74.00
2022-12-26T16:16:37.417Z,74.10
2022-12-26T16:17:20.717Z,74.20
2022-12-26T16:17:55.354Z,74.30
2022-12-26T16:18:32.626Z,74.20
2022-12-26T16:19:16.749Z,74.20
2022-12-26T16:19:54.599Z,74.10
2022-12-26T16:20:50.932Z,74.20
2022-12-26T16:21:48.632Z,74.20
2022-12-26T16:22:47.873Z,74.40
2022-12-26T16:23:26.177Z,74.40
2022-12-26T16:24:03.561Z,74.60
2022-12-26T16:24:38.977Z,74.60
2022-12-26T16:25:18.122Z,74.70
2022-12-26T16:25:54.941Z,74.80
2022-12-26T16:26:30.816Z,74.80
2022-12-26T16:27:09.732Z,74.80
2022-12-26T16:27:45.573Z,74.90
2022-12-26T16:28:26.605Z,75.10
2022-12-26T16:29:03.014Z,75.40
2022-12-26T16:29:45.207Z,75.50
2022-12-26T16:30:22.675Z,75.70
2022-12-26T16:30:58.466Z,75.90
2022-12-26T16:31:32.071Z,76.00
2022-12-26T16:32:18.028Z,76.10
2022-12-26T16:32:52.900Z,76.10
2022-12-26T16:33:32.859Z,76.20
2022-12-26T16:34:08.031Z,76.10
2022-12-26T16:34:43.120Z,75.80
2022-12-26T16:35:21.787Z,75.70
2022-12-26T16:36:01.224Z,75.60
2022-12-26T16:36:37.818Z,75.50
2022-12-26T16:37:19.185Z,75.30
2022-12-26T16:37:55.245Z,75.10
2022-12-26T16:38:32.072Z,74.90
2022-12-26T16:39:11.493Z,74.70
2022-12-26T16:39:45.689Z,74.60
2022-12-26T16:40:27.015Z,74.60
2022-12-26T16:41:01.391Z,74.60
2022-12-26T16:41:53.300Z,75.30
2022-12-26T16:42:32.944Z,74.90
2022-12-26T16:43:22.959Z,75.00
2022-12-26T16:44:20.077Z,74.90
2022-12-26T16:44:57.945Z,75.10
2022-12-26T16:45:34.872Z,75.10
2022-12-26T16:46:13.270Z,75.10
2022-12-26T16:46:48.906Z,75.20
2022-12-26T16:47:24.126Z,75.20
2022-12-26T16:47:59.578Z,75.10
2022-12-26T16:48:37.434Z,74.70
2022-12-26T16:49:12.636Z,74.60
2022-12-26T16:49:47.755Z,74.60
2022-12-26T16:50:26.479Z,74.60
2022-12-26T16:51:03.301Z,74.80
2022-12-26T16:51:46.982Z,74.80
2022-12-26T16:52:43.897Z,74.90
2022-12-26T16:53:24.109Z,74.90
2022-12-26T16:54:17.832Z,75.00
2022-12-26T16:54:55.454Z,75.10
2022-12-26T16:55:39.765Z,75.20
2022-12-26T16:56:27.346Z,75.50
2022-12-26T16:57:06.811Z,75.70
2022-12-26T16:57:43.662Z,75.80
2022-12-26T16:58:22.665Z,75.90
2022-12-26T16:59:05.185Z,76.00
2022-12-26T16:59:49.623Z,76.00
2022-12-26T17:00:25.199Z,76.10
2022-12-26T17:01:07.693Z,76.30
2022-12-26T17:01:42.402Z,76.30
2022-12-26T17:02:24.525Z,76.50
2022-12-26T17:03:00.700Z,76.60
2022-12-26T17:03:46.412Z,76.80
2022-12-26T17:04:25.048Z,76.90
2022-12-26T17:05:04.357Z,77.10
2022-12-26T17:05:43.356Z,77.10
2022-12-26T17:06:24.443Z,77.10
2022-12-26T17:07:03.347Z,78.00
2022-12-26T17:07:45.855Z,77.40
2022-12-26T17:08:19.810Z,77.60
2022-12-26T17:08:56.271Z,78.00
2022-12-26T17:09:33.747Z,78.10
2022-12-26T17:10:19.432Z,78.50
2022-12-26T17:10:54.831Z,78.60
2022-12-26T17:11:31.983Z,78.60
2022-12-26T17:12:09.807Z,78.40
2022-12-26T17:12:48.028Z,78.30
2022-12-26T17:13:27.330Z,78.10
2022-12-26T17:14:04.074Z,78.00
2022-12-26T17:14:40.569Z,78.10
2022-12-26T17:15:23.584Z,78.20
2022-12-26T17:15:59.591Z,78.30
2022-12-26T17:16:33.802Z,78.30
2022-12-26T17:17:27.371Z,78.30
2022-12-26T17:18:45.129Z,78.30
2022-12-26T17:19:22.135Z,78.50
2022-12-26T17:19:59.337Z,78.60
2022-12-26T17:20:39.164Z,78.60
2022-12-26T17:21:18.180Z,78.70
2022-12-26T17:22:25.893Z,78.80
2022-12-26T17:23:00.917Z,78.90
2022-12-26T17:23:37.429Z,79.10
2022-12-26T17:24:31.412Z,79.20
2022-12-26T17:25:24.598Z,79.20
2022-12-26T17:26:19.874Z,79.20
2022-12-26T17:27:09.484Z,79.20
2022-12-26T17:27:44.794Z,79.30
2022-12-26T17:28:24.829Z,79.40
2022-12-26T17:29:00.446Z,79.60
2022-12-26T17:29:38.605Z,79.50
2022-12-26T17:30:23.131Z,79.10
2022-12-26T17:30:57.538Z,78.80
2022-12-26T17:31:35.551Z,78.70
2022-12-26T17:32:11.989Z,78.70
2022-12-26T17:32:47.481Z,78.80
2022-12-26T17:33:27.183Z,78.90
2022-12-26T17:34:06.629Z,79.00
2022-12-26T17:34:42.103Z,79.10
2022-12-26T17:35:19.626Z,79.30
2022-12-26T17:37:18.281Z,79.30
2022-12-26T17:37:53.033Z,79.10
2022-12-26T17:38:30.007Z,78.70
2022-12-26T17:39:14.080Z,78.50
2022-12-26T17:40:02.407Z,78.40
2022-12-26T17:40:39.326Z,78.50
2022-12-26T17:41:17.710Z,78.40
2022-12-26T17:41:54.512Z,78.40
2022-12-26T17:42:29.021Z,78.50
2022-12-26T17:43:10.635Z,78.50
2022-12-26T17:43:44.612Z,78.40
2022-12-26T17:44:58.713Z,78.40
2022-12-26T17:45:32.053Z,78.30
2022-12-26T17:46:08.595Z,78.00
2022-12-26T17:47:15.442Z,77.90
2022-12-26T17:47:52.105Z,77.80
2022-12-26T17:48:27.379Z,77.80
2022-12-26T17:49:04.271Z,77.70
2022-12-26T17:50:10.617Z,77.50
2022-12-26T17:53:22.059Z,76.60
2022-12-26T17:54:39.683Z,76.30
2022-12-26T17:55:46.230Z,76.30
2022-12-26T17:59:19.755Z,76.70
2022-12-26T17:59:54.859Z,76.70
2022-12-26T18:00:29.397Z,76.70
2022-12-26T18:01:06.028Z,76.50
2022-12-26T18:01:41.337Z,76.50
2022-12-26T18:02:16.480Z,76.50
2022-12-26T18:02:52.060Z,76.40
2022-12-26T18:03:27.163Z,76.60
2022-12-26T18:04:02.191Z,76.70
2022-12-26T18:04:39.196Z,76.50
2022-12-26T18:05:13.787Z,76.40
2022-12-26T18:05:49.878Z,76.20
2022-12-26T18:06:24.991Z,76.20
2022-12-26T18:06:59.504Z,76.30
2022-12-26T18:07:34.761Z,76.40
2022-12-26T18:08:13.809Z,76.50
2022-12-26T18:08:49.624Z,76.50
2022-12-26T18:09:28.238Z,76.20
2022-12-26T18:10:04.426Z,76.00
2022-12-26T18:10:38.877Z,75.70
2022-12-26T18:11:15.415Z,75.80
2022-12-26T18:11:49.023Z,75.70
2022-12-26T18:12:23.393Z,75.60
2022-12-26T18:12:59.651Z,75.60
2022-12-26T18:13:34.464Z,75.60
2022-12-26T18:14:12.959Z,75.70
2022-12-26T18:14:48.054Z,75.80
2022-12-26T18:15:23.317Z,76.00
2022-12-26T18:15:58.759Z,76.20
2022-12-26T18:16:34.674Z,76.00
2022-12-26T18:17:11.979Z,75.80
2022-12-26T18:17:47.363Z,75.70
2022-12-26T18:18:31.253Z,75.70
2022-12-26T18:19:06.400Z,75.70
2022-12-26T18:19:41.159Z,75.70
2022-12-26T18:20:18.292Z,75.60
2022-12-26T18:20:52.852Z,75.60
2022-12-26T18:21:27.660Z,75.50
2022-12-26T18:22:01.727Z,75.40
2022-12-26T18:22:36.124Z,75.40
2022-12-26T18:23:11.105Z,75.60
2022-12-26T18:23:45.491Z,75.70
2022-12-26T18:24:20.718Z,75.70
2022-12-26T18:24:56.258Z,75.60
2022-12-26T18:25:30.285Z,75.50
2022-12-26T18:26:09.014Z,75.40
2022-12-26T18:26:44.167Z,75.40
2022-12-26T18:27:20.565Z,75.30
2022-12-26T18:27:57.031Z,75.30
2022-12-26T18:28:31.407Z,75.30
2022-12-26T18:29:05.695Z,75.20
2022-12-26T18:29:42.810Z,75.10
2022-12-26T18:30:19.112Z,75.10
2022-12-26T18:30:53.622Z,75.00
2022-12-26T18:31:30.049Z,75.00
2022-12-26T18:32:04.684Z,75.00
2022-12-26T18:32:38.746Z,75.00
2022-12-26T18:33:14.482Z,75.10
2022-12-26T18:33:49.465Z,75.10
2022-12-26T18:34:23.426Z,75.00
2022-12-26T18:34:59.892Z,74.90
2022-12-26T18:35:34.365Z,74.70
2022-12-26T18:36:14.648Z,74.60
2022-12-26T18:36:48.726Z,74.50
2022-12-26T18:37:24.285Z,74.50
2022-12-26T18:38:01.240Z,74.60
2022-12-26T18:38:35.481Z,74.60
2022-12-26T18:39:12.722Z,74.70
2022-12-26T18:39:46.377Z,74.80
2022-12-26T18:40:33.025Z,74.90
2022-12-26T18:41:07.985Z,75.00
2022-12-26T18:41:43.658Z,75.00
2022-12-26T18:42:19.253Z,75.00
2022-12-26T18:42:55.035Z,75.00
2022-12-26T18:43:29.665Z,75.10
2022-12-26T18:44:05.487Z,75.00
2022-12-26T18:44:40.582Z,74.90
2022-12-26T18:45:14.176Z,74.80
2022-12-26T18:45:49.407Z,74.80
2022-12-26T18:46:24.061Z,74.90
2022-12-26T18:46:59.047Z,74.70
2022-12-26T18:47:35.430Z,75.00
2022-12-26T18:48:15.015Z,75.10
2022-12-26T18:48:51.863Z,75.00
2022-12-26T18:49:26.783Z,74.90
2022-12-26T18:50:02.521Z,75.00
2022-12-26T18:50:37.255Z,74.80
2022-12-26T18:51:13.446Z,74.70
2022-12-26T18:51:47.299Z,74.60
2022-12-26T18:52:21.810Z,74.50
2022-12-26T18:52:55.957Z,74.40
2022-12-26T18:53:29.564Z,74.40
2022-12-26T18:54:04.846Z,74.20
2022-12-26T18:54:41.003Z,74.30
2022-12-26T18:55:14.734Z,74.40
2022-12-26T18:55:51.231Z,74.60
2022-12-26T18:56:26.897Z,74.10
2022-12-26T18:57:00.386Z,74.10
2022-12-26T18:57:34.169Z,74.00
2022-12-26T18:58:09.167Z,73.90
2022-12-26T18:58:42.569Z,73.90
2022-12-26T18:59:16.972Z,74.00
2022-12-26T18:59:53.406Z,74.20
2022-12-26T19:00:26.755Z,74.40
2022-12-26T19:01:02.911Z,74.50
2022-12-26T19:01:37.810Z,74.70
2022-12-26T19:02:16.850Z,74.70
2022-12-26T19:02:54.262Z,74.60
2022-12-26T19:03:54.322Z,74.80
2022-12-26T19:04:29.530Z,74.40
2022-12-26T19:05:05.899Z,74.50
2022-12-26T19:05:40.941Z,74.60
2022-12-26T19:06:18.171Z,74.80
2022-12-26T19:06:58.407Z,74.60
2022-12-26T19:07:31.800Z,74.40
2022-12-26T19:08:10.392Z,74.30
2022-12-26T19:08:43.851Z,74.30
2022-12-26T19:09:17.267Z,74.30
2022-12-26T19:09:55.799Z,74.40
2022-12-26T19:10:32.263Z,74.40
2022-12-26T19:11:10.388Z,74.50
2022-12-26T19:11:45.995Z,74.50
2022-12-26T19:12:20.737Z,74.50
2022-12-26T19:13:05.612Z,74.50
2022-12-26T19:13:43.962Z,74.40
2022-12-26T19:14:26.693Z,74.30
2022-12-26T19:15:01.921Z,74.40
2022-12-26T19:15:38.241Z,74.60
2022-12-26T19:16:11.535Z,74.70
2022-12-26T19:16:45.711Z,74.80
2022-12-26T19:17:20.026Z,74.90
2022-12-26T19:17:53.280Z,75.00
2022-12-26T19:18:30.880Z,75.00
2022-12-26T19:19:04.458Z,74.80
2022-12-26T19:19:37.794Z,74.50
2022-12-26T19:20:18.913Z,74.40
2022-12-26T19:20:52.710Z,74.30
2022-12-26T19:21:28.647Z,74.30
2022-12-26T19:22:01.778Z,74.30
2022-12-26T19:22:38.528Z,74.30
2022-12-26T19:23:12.922Z,74.30
2022-12-26T19:23:47.825Z,74.40
2022-12-26T19:24:21.063Z,74.50
2022-12-26T19:24:59.339Z,74.60
2022-12-26T19:25:33.281Z,74.60
2022-12-26T19:26:16.802Z,74.40
2022-12-26T19:26:49.927Z,74.30
2022-12-26T19:27:25.151Z,74.20
2022-12-26T19:28:00.658Z,74.10
2022-12-26T19:28:35.049Z,74.00
2022-12-26T19:29:09.737Z,73.80
2022-12-26T19:29:43.599Z,73.70
2022-12-26T19:30:19.749Z,73.70
2022-12-26T19:30:53.710Z,73.70
2022-12-26T19:31:27.923Z,73.70
2022-12-26T19:32:01.826Z,73.90
2022-12-26T19:32:35.421Z,74.20
2022-12-26T19:33:10.793Z,74.30
2022-12-26T19:33:43.688Z,74.60
2022-12-26T19:34:16.937Z,74.80
2022-12-26T19:34:53.723Z,74.90
2022-12-26T19:35:28.956Z,74.90
2022-12-26T19:36:03.965Z,74.90
2022-12-26T19:36:37.466Z,74.70
2022-12-26T19:37:10.671Z,74.70
2022-12-26T19:37:45.834Z,74.70
2022-12-26T19:38:19.625Z,74.70
2022-12-26T19:38:54.508Z,74.70
2022-12-26T19:39:29.054Z,74.70
2022-12-26T19:40:01.833Z,74.70
2022-12-26T19:40:35.295Z,74.70
2022-12-26T19:41:14.892Z,74.70
2022-12-26T19:41:49.879Z,74.70
2022-12-26T19:42:24.196Z,74.70
2022-12-26T19:42:58.482Z,74.70
2022-12-26T19:43:33.368Z,74.70
2022-12-26T19:44:07.565Z,74.70
2022-12-26T19:44:42.861Z,74.70
2022-12-26T19:45:19.741Z,74.80
2022-12-26T19:46:00.235Z,74.90
2022-12-26T19:46:35.029Z,75.00
2022-12-26T19:47:12.042Z,75.00
2022-12-26T19:47:47.621Z,75.20
2022-12-26T19:48:20.965Z,75.30
2022-12-26T19:48:54.915Z,75.40
2022-12-26T19:49:33.873Z,75.60
2022-12-26T19:50:09.449Z,75.60
2022-12-26T19:50:44.468Z,75.70
2022-12-26T19:51:19.596Z,75.80
2022-12-26T19:51:54.391Z,76.00
2022-12-26T19:52:30.876Z,75.90
2022-12-26T19:53:05.765Z,75.90
2022-12-26T19:53:42.189Z,75.80
2022-12-26T19:54:18.802Z,75.90
2022-12-26T19:54:52.006Z,76.00
2022-12-26T19:55:27.434Z,76.00
2022-12-26T19:56:06.217Z,75.90
2022-12-26T19:56:41.702Z,75.70
2022-12-26T19:57:22.624Z,75.30
2022-12-26T19:57:55.928Z,74.90
2022-12-26T19:58:32.285Z,74.90
2022-12-26T19:59:05.663Z,75.00
2022-12-26T19:59:39.281Z,75.00
2022-12-26T20:00:15.310Z,75.00
2022-12-26T20:00:48.146Z,75.10
2022-12-26T20:01:26.630Z,75.10
2022-12-26T20:02:00.787Z,75.00
2022-12-26T20:02:34.443Z,75.00
2022-12-26T20:03:09.273Z,74.90
2022-12-26T20:03:43.466Z,74.90
2022-12-26T20:04:17.942Z,74.80
2022-12-26T20:04:51.748Z,74.70
2022-12-26T20:05:25.792Z,74.50
2022-12-26T20:06:00.856Z,74.50
2022-12-26T20:06:36.339Z,74.40
2022-12-26T20:07:11.048Z,74.40
2022-12-26T20:07:44.411Z,74.50
2022-12-26T20:08:19.140Z,74.70
2022-12-26T20:08:52.863Z,74.80
2022-12-26T20:09:26.642Z,74.80
2022-12-26T20:10:02.001Z,74.50
2022-12-26T20:10:37.129Z,74.20
2022-12-26T20:11:13.615Z,74.10
2022-12-26T20:11:49.599Z,74.30
2022-12-26T20:12:25.237Z,74.30
2022-12-26T20:12:59.429Z,74.30
2022-12-26T20:13:32.647Z,74.00
2022-12-26T20:14:09.349Z,73.80
2022-12-26T20:14:42.888Z,73.90
2022-12-26T20:15:15.772Z,74.00
2022-12-26T20:15:50.451Z,74.00
2022-12-26T20:17:21.429Z,74.10
2022-12-26T20:17:55.569Z,74.20
2022-12-26T20:18:29.663Z,74.30
2022-12-26T20:19:02.936Z,74.30
2022-12-26T20:19:38.552Z,74.30
2022-12-26T20:20:12.731Z,74.20
2022-12-26T20:20:55.157Z,74.10
2022-12-26T20:21:28.753Z,74.20
2022-12-26T20:22:04.308Z,74.20
2022-12-26T20:22:38.450Z,74.30
2022-12-26T20:23:14.138Z,74.50
2022-12-26T20:23:47.005Z,74.60
2022-12-26T20:24:23.568Z,74.40
2022-12-26T20:24:57.255Z,74.20
2022-12-26T20:25:32.032Z,74.20
2022-12-26T20:26:09.559Z,74.30
2022-12-26T20:26:44.412Z,74.40
2022-12-26T20:27:19.650Z,74.50
2022-12-26T20:27:53.859Z,74.50
2022-12-26T20:28:28.292Z,74.50
2022-12-26T20:29:03.339Z,74.40
2022-12-26T20:29:41.864Z,74.50
2022-12-26T20:30:16.005Z,74.60
2022-12-26T20:30:58.648Z,74.80
2022-12-26T20:31:34.654Z,75.00
2022-12-26T20:32:09.253Z,75.10
2022-12-26T20:32:47.193Z,75.00
2022-12-26T20:33:20.972Z,75.00
2022-12-26T20:33:58.381Z,75.00
2022-12-26T20:34:32.920Z,75.00
2022-12-26T20:35:10.612Z,75.00
2022-12-26T20:35:45.408Z,74.90
2022-12-26T20:36:21.461Z,74.90
2022-12-26T20:36:55.303Z,75.20
2022-12-26T20:37:28.752Z,75.20
2022-12-26T20:38:03.292Z,75.30
2022-12-26T20:38:39.546Z,75.50
2022-12-26T20:39:14.995Z,75.50
2022-12-26T20:39:49.642Z,75.70
2022-12-26T20:40:25.449Z,75.70
2022-12-26T20:41:00.837Z,75.70
2022-12-26T20:41:35.831Z,75.60
2022-12-26T20:42:14.058Z,75.50
2022-12-26T20:42:49.859Z,75.50
2022-12-26T20:43:24.521Z,75.10
2022-12-26T20:43:58.759Z,75.00
2022-12-26T20:44:33.508Z,74.80
2022-12-26T20:45:08.005Z,74.90
2022-12-26T20:45:41.807Z,74.90
2022-12-26T20:46:18.703Z,74.70
2022-12-26T20:46:53.296Z,74.80
2022-12-26T20:47:26.009Z,74.60
2022-12-26T20:48:00.922Z,74.70
2022-12-26T20:48:33.494Z,74.50
2022-12-26T20:49:10.341Z,74.60
2022-12-26T20:49:44.862Z,74.70
2022-12-26T20:50:19.326Z,74.60
2022-12-26T20:50:56.358Z,74.40
2022-12-26T20:51:36.993Z,74.30
2022-12-26T20:52:10.851Z,74.20
2022-12-26T20:52:45.663Z,74.30
2022-12-26T20:53:20.030Z,74.50
2022-12-26T20:53:54.445Z,74.70
2022-12-26T20:54:29.284Z,74.90
2022-12-26T20:55:03.115Z,74.90
2022-12-26T20:55:37.949Z,74.90
2022-12-26T20:56:12.757Z,74.90
2022-12-26T20:56:45.906Z,75.10
2022-12-26T20:57:19.825Z,75.30
2022-12-26T20:57:55.468Z,75.50
2022-12-26T20:58:30.597Z,75.70
2022-12-26T20:59:04.902Z,75.80
2022-12-26T20:59:38.536Z,75.70
2022-12-26T21:00:16.055Z,75.40
2022-12-26T21:00:57.494Z,75.10
2022-12-26T21:01:30.900Z,75.10
2022-12-26T21:02:06.235Z,75.20
2022-12-26T21:02:41.838Z,75.20
2022-12-26T21:03:15.019Z,75.20
2022-12-26T21:03:49.808Z,75.20
2022-12-26T21:04:23.875Z,75.10
2022-12-26T21:05:01.188Z,75.20
2022-12-26T21:05:34.417Z,75.30
2022-12-26T21:06:10.189Z,75.30
2022-12-26T21:06:45.611Z,75.30
2022-12-26T21:07:20.245Z,75.40
2022-12-26T21:07:53.356Z,75.40
2022-12-26T21:08:26.912Z,75.40
2022-12-26T21:09:05.811Z,75.50
2022-12-26T21:09:45.827Z,75.60
2022-12-26T21:10:21.592Z,75.70
2022-12-26T21:10:56.273Z,75.80
2022-12-26T21:11:32.240Z,76.00
2022-12-26T21:12:06.904Z,76.10
2022-12-26T21:12:41.328Z,76.30
2022-12-26T21:13:16.113Z,76.40
2022-12-26T21:13:50.316Z,76.30
2022-12-26T21:14:24.604Z,76.40
2022-12-26T21:14:58.403Z,76.50
2022-12-26T21:15:32.856Z,76.50
2022-12-26T21:16:10.228Z,76.60
2022-12-26T21:16:46.701Z,76.60
2022-12-26T21:17:21.723Z,76.60
2022-12-26T21:17:56.611Z,76.70
2022-12-26T21:18:29.874Z,76.60
2022-12-26T21:19:10.907Z,76.60
2022-12-26T21:19:47.000Z,76.50
2022-12-26T21:20:20.572Z,76.10
2022-12-26T21:20:54.924Z,76.20
2022-12-26T21:21:30.390Z,76.20
2022-12-26T21:22:05.314Z,76.10
2022-12-26T21:22:38.451Z,75.80
2022-12-26T21:23:11.692Z,75.40
2022-12-26T21:23:45.959Z,75.30
2022-12-26T21:24:21.655Z,75.50
2022-12-26T21:24:56.085Z,75.60
2022-12-26T21:25:29.924Z,75.60
2022-12-26T21:26:03.838Z,75.50
2022-12-26T21:26:43.096Z,75.30
2022-12-26T21:27:16.366Z,75.10
2022-12-26T21:27:52.178Z,75.10
2022-12-26T21:28:30.311Z,75.00
2022-12-26T21:29:07.170Z,74.40
2022-12-26T21:29:42.396Z,74.30
2022-12-26T21:30:18.822Z,74.30
2022-12-26T21:30:53.070Z,74.40
2022-12-26T21:31:29.083Z,74.30
2022-12-26T21:32:04.013Z,74.20
2022-12-26T21:32:40.088Z,74.30
2022-12-26T21:33:13.795Z,74.20
2022-12-26T21:33:48.420Z,74.20
2022-12-26T21:34:25.008Z,74.30
2022-12-26T21:35:00.213Z,74.40
2022-12-26T21:35:37.176Z,74.50
2022-12-26T21:36:15.215Z,74.60
2022-12-26T21:37:04.000Z,74.60
2022-12-26T21:37:51.912Z,74.60
2022-12-26T21:38:30.850Z,74.20
2022-12-26T21:39:11.197Z,74.00
2022-12-26T21:39:46.146Z,73.80
2022-12-26T21:40:20.797Z,73.70
2022-12-26T21:40:54.494Z,73.70
2022-12-26T21:41:31.247Z,74.00
2022-12-26T21:42:07.768Z,73.70
2022-12-26T21:42:42.037Z,73.60
